sensor_id;sensor_type;location;lat;lon;timestamp;P1;durP1;ratioP1;P2;durP2;ratioP2
14116;SDS011;7137;51.436;6.544;2022-09-28T00:02:04;5.63;;;3.50;;
14116;SDS011;7137;51.436;6.544;2022-09-28T00:05:06;5.43;;;3.43;;
14116;SDS011;7137;51.436;6.544;2022-09-28T00:08:08;5.17;;;3.67;;
14116;SDS011;7137;51.436;6.544;2022-09-28T00:11:10;5.70;;;3.50;;
14116;SDS011;7137;51.436;6.544;2022-09-28T00:14:15;4.77;;;3.40;;
14116;SDS011;7137;51.436;6.544;2022-09-28T00:17:17;4.90;;;3.40;;
14116;SDS011;7137;51.436;6.544;2022-09-28T00:20:21;5.20;;;3.40;;
14116;SDS011;7137;51.436;6.544;2022-09-28T00:23:22;5.50;;;3.90;;
14116;SDS011;7137;51.436;6.544;2022-09-28T00:26:24;5.77;;;3.70;;
14116;SDS011;7137;51.436;6.544;2022-09-28T00:29:28;5.67;;;4.00;;
14116;SDS011;7137;51.436;6.544;2022-09-28T00:32:31;5.63;;;3.93;;
14116;SDS011;7137;51.436;6.544;2022-09-28T00:35:33;5.57;;;4.13;;
14116;SDS011;7137;51.436;6.544;2022-09-28T00:38:34;6.00;;;3.93;;
14116;SDS011;7137;51.436;6.544;2022-09-28T00:41:39;6.13;;;4.07;;
14116;SDS011;7137;51.436;6.544;2022-09-28T00:44:44;5.17;;;4.13;;
14116;SDS011;7137;51.436;6.544;2022-09-28T00:47:48;5.77;;;4.17;;
14116;SDS011;7137;51.436;6.544;2022-09-28T00:50:55;5.40;;;4.00;;
14116;SDS011;7137;51.436;6.544;2022-09-28T00:53:57;7.13;;;4.27;;
14116;SDS011;7137;51.436;6.544;2022-09-28T00:57:02;5.70;;;4.37;;
14116;SDS011;7137;51.436;6.544;2022-09-28T01:00:07;5.60;;;4.17;;
14116;SDS011;7137;51.436;6.544;2022-09-28T01:03:10;5.40;;;4.07;;
14116;SDS011;7137;51.436;6.544;2022-09-28T01:06:14;5.37;;;4.20;;
14116;SDS011;7137;51.436;6.544;2022-09-28T01:09:20;6.57;;;4.70;;
14116;SDS011;7137;51.436;6.544;2022-09-28T01:12:22;7.60;;;4.60;;
14116;SDS011;7137;51.436;6.544;2022-09-28T01:15:25;5.77;;;4.90;;
14116;SDS011;7137;51.436;6.544;2022-09-28T01:18:30;6.33;;;4.37;;
14116;SDS011;7137;51.436;6.544;2022-09-28T01:21:39;7.10;;;5.40;;
14116;SDS011;7137;51.436;6.544;2022-09-28T01:24:52;7.20;;;5.10;;
14116;SDS011;7137;51.436;6.544;2022-09-28T01:28:02;6.27;;;5.07;;
14116;SDS011;7137;51.436;6.544;2022-09-28T01:31:08;6.03;;;4.83;;
14116;SDS011;7137;51.436;6.544;2022-09-28T01:34:12;6.00;;;5.10;;
14116;SDS011;7137;51.436;6.544;2022-09-28T01:37:17;6.87;;;5.50;;
14116;SDS011;7137;51.436;6.544;2022-09-28T01:40:22;6.93;;;5.10;;
14116;SDS011;7137;51.436;6.544;2022-09-28T01:43:28;6.27;;;4.93;;
14116;SDS011;7137;51.436;6.544;2022-09-28T01:46:33;6.77;;;5.10;;
14116;SDS011;7137;51.436;6.544;2022-09-28T01:49:39;6.20;;;5.17;;
14116;SDS011;7137;51.436;6.544;2022-09-28T01:52:45;5.83;;;5.23;;
14116;SDS011;7137;51.436;6.544;2022-09-28T01:55:52;7.40;;;5.53;;
14116;SDS011;7137;51.436;6.544;2022-09-28T01:58:59;7.17;;;5.57;;
14116;SDS011;7137;51.436;6.544;2022-09-28T02:02:08;6.80;;;6.10;;
14116;SDS011;7137;51.436;6.544;2022-09-28T02:05:14;7.40;;;6.40;;
14116;SDS011;7137;51.436;6.544;2022-09-28T02:08:19;6.33;;;5.73;;
14116;SDS011;7137;51.436;6.544;2022-09-28T02:11:25;6.90;;;6.03;;
14116;SDS011;7137;51.436;6.544;2022-09-28T02:14:29;7.10;;;6.40;;
14116;SDS011;7137;51.436;6.544;2022-09-28T02:17:30;8.07;;;6.73;;
14116;SDS011;7137;51.436;6.544;2022-09-28T02:20:33;7.40;;;6.60;;
14116;SDS011;7137;51.436;6.544;2022-09-28T02:23:36;7.57;;;6.73;;
14116;SDS011;7137;51.436;6.544;2022-09-28T02:26:42;7.37;;;6.60;;
14116;SDS011;7137;51.436;6.544;2022-09-28T02:29:50;7.87;;;6.77;;
14116;SDS011;7137;51.436;6.544;2022-09-28T02:32:53;8.70;;;6.63;;
14116;SDS011;7137;51.436;6.544;2022-09-28T02:35:59;8.03;;;6.90;;
14116;SDS011;7137;51.436;6.544;2022-09-28T02:39:02;7.63;;;6.33;;
14116;SDS011;7137;51.436;6.544;2022-09-28T02:42:06;8.30;;;7.10;;
14116;SDS011;7137;51.436;6.544;2022-09-28T02:45:19;8.80;;;6.50;;
14116;SDS011;7137;51.436;6.544;2022-09-28T02:55:28;9.40;;;7.10;;
14116;SDS011;7137;51.436;6.544;2022-09-28T02:58:43;7.77;;;6.57;;
14116;SDS011;7137;51.436;6.544;2022-09-28T03:01:56;7.67;;;6.87;;
14116;SDS011;7137;51.436;6.544;2022-09-28T03:05:11;8.13;;;6.90;;
14116;SDS011;7137;51.436;6.544;2022-09-28T03:08:17;7.33;;;6.63;;
14116;SDS011;7137;51.436;6.544;2022-09-28T03:11:24;7.70;;;6.77;;
14116;SDS011;7137;51.436;6.544;2022-09-28T03:14:31;8.80;;;7.47;;
14116;SDS011;7137;51.436;6.544;2022-09-28T03:17:34;8.37;;;7.00;;
14116;SDS011;7137;51.436;6.544;2022-09-28T03:20:36;8.20;;;7.20;;
14116;SDS011;7137;51.436;6.544;2022-09-28T03:23:37;8.67;;;7.70;;
14116;SDS011;7137;51.436;6.544;2022-09-28T03:26:39;8.57;;;7.60;;
14116;SDS011;7137;51.436;6.544;2022-09-28T03:29:42;9.47;;;8.20;;
14116;SDS011;7137;51.436;6.544;2022-09-28T03:32:45;10.00;;;9.00;;
14116;SDS011;7137;51.436;6.544;2022-09-28T03:35:47;10.63;;;9.63;;
14116;SDS011;7137;51.436;6.544;2022-09-28T03:38:50;13.77;;;11.07;;
14116;SDS011;7137;51.436;6.544;2022-09-28T03:41:52;12.80;;;11.23;;
14116;SDS011;7137;51.436;6.544;2022-09-28T03:44:53;12.17;;;10.97;;
14116;SDS011;7137;51.436;6.544;2022-09-28T03:47:57;12.13;;;10.93;;
14116;SDS011;7137;51.436;6.544;2022-09-28T03:50:59;11.70;;;10.53;;
14116;SDS011;7137;51.436;6.544;2022-09-28T03:54:02;11.90;;;10.80;;
14116;SDS011;7137;51.436;6.544;2022-09-28T03:57:04;12.67;;;11.37;;
14116;SDS011;7137;51.436;6.544;2022-09-28T04:00:06;12.90;;;11.67;;
14116;SDS011;7137;51.436;6.544;2022-09-28T04:03:10;13.07;;;11.77;;
14116;SDS011;7137;51.436;6.544;2022-09-28T04:06:12;13.43;;;12.03;;
14116;SDS011;7137;51.436;6.544;2022-09-28T04:09:14;12.63;;;11.43;;
14116;SDS011;7137;51.436;6.544;2022-09-28T04:12:16;14.30;;;12.17;;
14116;SDS011;7137;51.436;6.544;2022-09-28T04:15:18;14.97;;;13.30;;
14116;SDS011;7137;51.436;6.544;2022-09-28T04:18:21;14.47;;;13.07;;
14116;SDS011;7137;51.436;6.544;2022-09-28T04:21:23;14.07;;;12.77;;
14116;SDS011;7137;51.436;6.544;2022-09-28T04:24:25;14.70;;;13.30;;
14116;SDS011;7137;51.436;6.544;2022-09-28T04:27:27;15.20;;;13.70;;
14116;SDS011;7137;51.436;6.544;2022-09-28T04:30:46;14.50;;;13.10;;
14116;SDS011;7137;51.436;6.544;2022-09-28T04:33:49;16.23;;;14.57;;
14116;SDS011;7137;51.436;6.544;2022-09-28T04:36:50;14.83;;;13.27;;
14116;SDS011;7137;51.436;6.544;2022-09-28T04:39:52;16.47;;;14.77;;
14116;SDS011;7137;51.436;6.544;2022-09-28T04:42:54;15.07;;;13.67;;
14116;SDS011;7137;51.436;6.544;2022-09-28T04:45:57;14.97;;;13.47;;
14116;SDS011;7137;51.436;6.544;2022-09-28T04:49:01;15.20;;;13.70;;
14116;SDS011;7137;51.436;6.544;2022-09-28T04:52:03;15.43;;;13.93;;
14116;SDS011;7137;51.436;6.544;2022-09-28T04:55:07;15.83;;;14.30;;
14116;SDS011;7137;51.436;6.544;2022-09-28T04:58:12;17.47;;;15.70;;
14116;SDS011;7137;51.436;6.544;2022-09-28T05:01:15;18.17;;;16.40;;
14116;SDS011;7137;51.436;6.544;2022-09-28T05:04:20;16.57;;;14.97;;
14116;SDS011;7137;51.436;6.544;2022-09-28T05:07:22;18.73;;;16.70;;
14116;SDS011;7137;51.436;6.544;2022-09-28T05:10:23;17.60;;;15.90;;
14116;SDS011;7137;51.436;6.544;2022-09-28T05:13:25;18.70;;;16.73;;
14116;SDS011;7137;51.436;6.544;2022-09-28T05:16:28;16.50;;;14.80;;
14116;SDS011;7137;51.436;6.544;2022-09-28T05:19:37;17.07;;;15.37;;
14116;SDS011;7137;51.436;6.544;2022-09-28T05:22:39;17.03;;;15.40;;
14116;SDS011;7137;51.436;6.544;2022-09-28T05:25:41;16.73;;;15.03;;
14116;SDS011;7137;51.436;6.544;2022-09-28T05:28:44;17.10;;;15.40;;
14116;SDS011;7137;51.436;6.544;2022-09-28T05:31:46;17.13;;;15.53;;
14116;SDS011;7137;51.436;6.544;2022-09-28T05:34:49;16.27;;;14.67;;
14116;SDS011;7137;51.436;6.544;2022-09-28T05:37:50;16.43;;;14.83;;
14116;SDS011;7137;51.436;6.544;2022-09-28T05:40:53;15.83;;;14.43;;
14116;SDS011;7137;51.436;6.544;2022-09-28T05:43:54;14.90;;;13.43;;
14116;SDS011;7137;51.436;6.544;2022-09-28T05:46:57;15.43;;;13.83;;
14116;SDS011;7137;51.436;6.544;2022-09-28T05:50:01;14.10;;;12.70;;
14116;SDS011;7137;51.436;6.544;2022-09-28T05:53:03;14.97;;;13.37;;
14116;SDS011;7137;51.436;6.544;2022-09-28T05:56:06;14.87;;;13.37;;
14116;SDS011;7137;51.436;6.544;2022-09-28T05:59:08;13.87;;;12.37;;
14116;SDS011;7137;51.436;6.544;2022-09-28T06:02:11;14.47;;;13.07;;
14116;SDS011;7137;51.436;6.544;2022-09-28T06:05:14;14.57;;;12.67;;
14116;SDS011;7137;51.436;6.544;2022-09-28T06:08:15;12.87;;;11.53;;
14116;SDS011;7137;51.436;6.544;2022-09-28T06:11:17;13.47;;;12.17;;
14116;SDS011;7137;51.436;6.544;2022-09-28T06:14:18;13.93;;;12.10;;
14116;SDS011;7137;51.436;6.544;2022-09-28T06:17:20;13.37;;;12.07;;
14116;SDS011;7137;51.436;6.544;2022-09-28T06:20:23;14.07;;;11.57;;
14116;SDS011;7137;51.436;6.544;2022-09-28T06:23:25;12.73;;;11.47;;
14116;SDS011;7137;51.436;6.544;2022-09-28T06:26:27;12.83;;;11.43;;
14116;SDS011;7137;51.436;6.544;2022-09-28T06:29:28;13.13;;;11.73;;
14116;SDS011;7137;51.436;6.544;2022-09-28T06:32:30;13.70;;;12.30;;
14116;SDS011;7137;51.436;6.544;2022-09-28T06:35:33;13.27;;;11.87;;
14116;SDS011;7137;51.436;6.544;2022-09-28T06:38:35;14.43;;;12.27;;
14116;SDS011;7137;51.436;6.544;2022-09-28T06:41:37;13.97;;;12.13;;
14116;SDS011;7137;51.436;6.544;2022-09-28T06:44:39;12.30;;;11.00;;
14116;SDS011;7137;51.436;6.544;2022-09-28T06:47:40;13.60;;;11.90;;
14116;SDS011;7137;51.436;6.544;2022-09-28T06:50:43;13.20;;;11.90;;
14116;SDS011;7137;51.436;6.544;2022-09-28T06:53:45;14.80;;;11.90;;
14116;SDS011;7137;51.436;6.544;2022-09-28T06:56:46;13.00;;;11.70;;
14116;SDS011;7137;51.436;6.544;2022-09-28T06:59:48;12.73;;;11.43;;
14116;SDS011;7137;51.436;6.544;2022-09-28T07:02:49;12.70;;;10.87;;
14116;SDS011;7137;51.436;6.544;2022-09-28T07:05:53;16.50;;;10.73;;
14116;SDS011;7137;51.436;6.544;2022-09-28T07:08:55;12.03;;;10.43;;
14116;SDS011;7137;51.436;6.544;2022-09-28T07:11:58;12.23;;;10.27;;
14116;SDS011;7137;51.436;6.544;2022-09-28T07:15:00;12.20;;;10.40;;
14116;SDS011;7137;51.436;6.544;2022-09-28T07:18:03;11.00;;;9.70;;
14116;SDS011;7137;51.436;6.544;2022-09-28T07:21:07;10.13;;;9.00;;
14116;SDS011;7137;51.436;6.544;2022-09-28T07:24:09;11.27;;;9.50;;
14116;SDS011;7137;51.436;6.544;2022-09-28T07:27:11;10.70;;;8.80;;
14116;SDS011;7137;51.436;6.544;2022-09-28T07:30:13;10.07;;;8.90;;
14116;SDS011;7137;51.436;6.544;2022-09-28T07:33:15;10.37;;;9.13;;
14116;SDS011;7137;51.436;6.544;2022-09-28T07:36:18;9.73;;;8.23;;
14116;SDS011;7137;51.436;6.544;2022-09-28T07:39:21;11.37;;;8.47;;
14116;SDS011;7137;51.436;6.544;2022-09-28T07:42:23;8.23;;;7.00;;
14116;SDS011;7137;51.436;6.544;2022-09-28T07:45:29;7.97;;;6.70;;
14116;SDS011;7137;51.436;6.544;2022-09-28T07:48:35;8.27;;;7.10;;
14116;SDS011;7137;51.436;6.544;2022-09-28T07:51:38;7.53;;;6.70;;
14116;SDS011;7137;51.436;6.544;2022-09-28T07:54:43;7.33;;;6.23;;
14116;SDS011;7137;51.436;6.544;2022-09-28T07:57:46;6.67;;;5.13;;
14116;SDS011;7137;51.436;6.544;2022-09-28T08:00:47;6.27;;;5.00;;
14116;SDS011;7137;51.436;6.544;2022-09-28T08:03:50;7.33;;;4.90;;
14116;SDS011;7137;51.436;6.544;2022-09-28T08:06:56;5.80;;;3.93;;
14116;SDS011;7137;51.436;6.544;2022-09-28T08:09:58;5.23;;;3.50;;
14116;SDS011;7137;51.436;6.544;2022-09-28T08:13:00;5.53;;;4.10;;
14116;SDS011;7137;51.436;6.544;2022-09-28T08:16:02;7.17;;;4.23;;
14116;SDS011;7137;51.436;6.544;2022-09-28T08:19:07;5.47;;;3.80;;
14116;SDS011;7137;51.436;6.544;2022-09-28T08:22:10;6.03;;;4.10;;
14116;SDS011;7137;51.436;6.544;2022-09-28T08:25:11;6.87;;;4.10;;
14116;SDS011;7137;51.436;6.544;2022-09-28T08:28:13;6.00;;;4.30;;
14116;SDS011;7137;51.436;6.544;2022-09-28T08:31:16;5.60;;;4.50;;
14116;SDS011;7137;51.436;6.544;2022-09-28T08:34:17;5.60;;;4.97;;
14116;SDS011;7137;51.436;6.544;2022-09-28T08:37:21;7.87;;;6.10;;
14116;SDS011;7137;51.436;6.544;2022-09-28T08:40:23;9.47;;;7.47;;
14116;SDS011;7137;51.436;6.544;2022-09-28T08:43:31;8.87;;;7.97;;
14116;SDS011;7137;51.436;6.544;2022-09-28T08:46:46;9.30;;;6.80;;
14116;SDS011;7137;51.436;6.544;2022-09-28T08:49:54;9.13;;;7.47;;
14116;SDS011;7137;51.436;6.544;2022-09-28T08:53:01;9.17;;;7.60;;
14116;SDS011;7137;51.436;6.544;2022-09-28T08:56:06;8.60;;;7.70;;
14116;SDS011;7137;51.436;6.544;2022-09-28T08:59:14;10.37;;;7.47;;
14116;SDS011;7137;51.436;6.544;2022-09-28T09:02:19;8.33;;;7.00;;
14116;SDS011;7137;51.436;6.544;2022-09-28T09:05:27;8.10;;;7.10;;
14116;SDS011;7137;51.436;6.544;2022-09-28T09:08:54;10.10;;;6.87;;
14116;SDS011;7137;51.436;6.544;2022-09-28T09:12:04;7.50;;;6.00;;
14116;SDS011;7137;51.436;6.544;2022-09-28T09:15:20;6.43;;;5.57;;
14116;SDS011;7137;51.436;6.544;2022-09-28T09:18:35;6.87;;;5.50;;
14116;SDS011;7137;51.436;6.544;2022-09-28T09:21:38;8.50;;;5.90;;
14116;SDS011;7137;51.436;6.544;2022-09-28T09:24:48;7.13;;;5.07;;
14116;SDS011;7137;51.436;6.544;2022-09-28T09:28:03;6.77;;;5.27;;
14116;SDS011;7137;51.436;6.544;2022-09-28T09:31:38;6.40;;;4.67;;
14116;SDS011;7137;51.436;6.544;2022-09-28T09:38:26;5.67;;;4.10;;
14116;SDS011;7137;51.436;6.544;2022-09-28T09:41:46;5.73;;;4.10;;
14116;SDS011;7137;51.436;6.544;2022-09-28T09:45:13;6.30;;;4.00;;
14116;SDS011;7137;51.436;6.544;2022-09-28T09:48:25;6.23;;;3.90;;
14116;SDS011;7137;51.436;6.544;2022-09-28T09:51:36;4.30;;;3.30;;
14116;SDS011;7137;51.436;6.544;2022-09-28T09:54:43;6.93;;;4.07;;
14116;SDS011;7137;51.436;6.544;2022-09-28T09:57:51;6.83;;;4.10;;
14116;SDS011;7137;51.436;6.544;2022-09-28T10:00:58;5.03;;;3.43;;
14116;SDS011;7137;51.436;6.544;2022-09-28T10:04:06;5.67;;;3.83;;
14116;SDS011;7137;51.436;6.544;2022-09-28T10:07:17;5.03;;;3.57;;
14116;SDS011;7137;51.436;6.544;2022-09-28T10:10:24;5.30;;;3.43;;
14116;SDS011;7137;51.436;6.544;2022-09-28T10:13:29;6.97;;;3.30;;
14116;SDS011;7137;51.436;6.544;2022-09-28T10:16:31;4.67;;;2.90;;
14116;SDS011;7137;51.436;6.544;2022-09-28T10:19:34;4.83;;;2.90;;
14116;SDS011;7137;51.436;6.544;2022-09-28T10:22:36;6.40;;;3.10;;
14116;SDS011;7137;51.436;6.544;2022-09-28T10:25:40;4.63;;;2.70;;
14116;SDS011;7137;51.436;6.544;2022-09-28T10:28:49;4.87;;;2.90;;
14116;SDS011;7137;51.436;6.544;2022-09-28T10:31:54;7.93;;;2.80;;
14116;SDS011;7137;51.436;6.544;2022-09-28T10:35:10;3.83;;;2.57;;
14116;SDS011;7137;51.436;6.544;2022-09-28T10:38:14;5.33;;;2.60;;
14116;SDS011;7137;51.436;6.544;2022-09-28T10:41:18;4.90;;;2.63;;
14116;SDS011;7137;51.436;6.544;2022-09-28T10:44:23;4.77;;;2.60;;
14116;SDS011;7137;51.436;6.544;2022-09-28T10:47:27;5.33;;;3.10;;
14116;SDS011;7137;51.436;6.544;2022-09-28T10:50:31;4.23;;;2.97;;
14116;SDS011;7137;51.436;6.544;2022-09-28T10:53:34;3.80;;;2.70;;
14116;SDS011;7137;51.436;6.544;2022-09-28T10:56:37;4.37;;;2.63;;
14116;SDS011;7137;51.436;6.544;2022-09-28T10:59:41;5.97;;;2.70;;
14116;SDS011;7137;51.436;6.544;2022-09-28T11:02:43;4.97;;;3.30;;
14116;SDS011;7137;51.436;6.544;2022-09-28T11:05:51;4.63;;;2.77;;
14116;SDS011;7137;51.436;6.544;2022-09-28T11:08:55;4.30;;;2.50;;
14116;SDS011;7137;51.436;6.544;2022-09-28T11:12:00;3.53;;;2.00;;
14116;SDS011;7137;51.436;6.544;2022-09-28T11:15:10;3.20;;;2.10;;
14116;SDS011;7137;51.436;6.544;2022-09-28T11:18:18;3.50;;;2.23;;
14116;SDS011;7137;51.436;6.544;2022-09-28T11:21:26;4.27;;;2.17;;
14116;SDS011;7137;51.436;6.544;2022-09-28T11:24:31;3.40;;;2.23;;
14116;SDS011;7137;51.436;6.544;2022-09-28T11:27:33;3.77;;;2.07;;
14116;SDS011;7137;51.436;6.544;2022-09-28T11:30:38;5.07;;;2.03;;
14116;SDS011;7137;51.436;6.544;2022-09-28T11:33:45;3.53;;;2.00;;
14116;SDS011;7137;51.436;6.544;2022-09-28T11:36:52;3.03;;;1.73;;
14116;SDS011;7137;51.436;6.544;2022-09-28T11:40:06;3.20;;;1.90;;
14116;SDS011;7137;51.436;6.544;2022-09-28T11:43:26;4.80;;;1.93;;
14116;SDS011;7137;51.436;6.544;2022-09-28T11:46:49;5.30;;;2.00;;
14116;SDS011;7137;51.436;6.544;2022-09-28T11:50:00;5.17;;;1.80;;
14116;SDS011;7137;51.436;6.544;2022-09-28T11:53:11;4.40;;;1.83;;
14116;SDS011;7137;51.436;6.544;2022-09-28T11:56:22;4.07;;;2.00;;
14116;SDS011;7137;51.436;6.544;2022-09-28T11:59:34;3.73;;;1.70;;
14116;SDS011;7137;51.436;6.544;2022-09-28T12:02:44;2.67;;;1.53;;
14116;SDS011;7137;51.436;6.544;2022-09-28T12:05:51;3.53;;;1.60;;
14116;SDS011;7137;51.436;6.544;2022-09-28T12:08:58;2.80;;;1.70;;
14116;SDS011;7137;51.436;6.544;2022-09-28T12:12:11;3.57;;;1.60;;
14116;SDS011;7137;51.436;6.544;2022-09-28T12:15:22;3.63;;;1.67;;
14116;SDS011;7137;51.436;6.544;2022-09-28T12:18:27;4.53;;;1.57;;
14116;SDS011;7137;51.436;6.544;2022-09-28T12:21:39;3.90;;;1.47;;
14116;SDS011;7137;51.436;6.544;2022-09-28T12:24:44;2.70;;;1.47;;
14116;SDS011;7137;51.436;6.544;2022-09-28T12:27:50;3.07;;;1.30;;
14116;SDS011;7137;51.436;6.544;2022-09-28T12:30:55;2.90;;;1.40;;
14116;SDS011;7137;51.436;6.544;2022-09-28T12:34:00;3.43;;;1.60;;
14116;SDS011;7137;51.436;6.544;2022-09-28T12:40:37;2.10;;;1.07;;
14116;SDS011;7137;51.436;6.544;2022-09-28T12:43:54;5.67;;;2.03;;
14116;SDS011;7137;51.436;6.544;2022-09-28T12:47:24;3.80;;;1.60;;
14116;SDS011;7137;51.436;6.544;2022-09-28T12:50:53;3.60;;;1.20;;
14116;SDS011;7137;51.436;6.544;2022-09-28T12:54:06;2.60;;;0.90;;
14116;SDS011;7137;51.436;6.544;2022-09-28T13:00:45;3.93;;;1.00;;
14116;SDS011;7137;51.436;6.544;2022-09-28T13:03:56;2.73;;;1.20;;
14116;SDS011;7137;51.436;6.544;2022-09-28T13:07:08;3.10;;;1.03;;
14116;SDS011;7137;51.436;6.544;2022-09-28T13:10:21;1.50;;;1.10;;
14116;SDS011;7137;51.436;6.544;2022-09-28T13:13:33;3.07;;;1.50;;
14116;SDS011;7137;51.436;6.544;2022-09-28T13:16:44;4.80;;;2.50;;
14116;SDS011;7137;51.436;6.544;2022-09-28T13:19:56;3.40;;;2.03;;
14116;SDS011;7137;51.436;6.544;2022-09-28T13:23:03;4.00;;;1.80;;
14116;SDS011;7137;51.436;6.544;2022-09-28T13:26:15;2.80;;;1.50;;
14116;SDS011;7137;51.436;6.544;2022-09-28T13:29:24;3.40;;;1.53;;
14116;SDS011;7137;51.436;6.544;2022-09-28T13:32:26;3.13;;;1.57;;
14116;SDS011;7137;51.436;6.544;2022-09-28T13:35:30;2.67;;;1.40;;
14116;SDS011;7137;51.436;6.544;2022-09-28T13:41:53;2.83;;;1.40;;
14116;SDS011;7137;51.436;6.544;2022-09-28T13:45:05;4.27;;;1.77;;
14116;SDS011;7137;51.436;6.544;2022-09-28T13:48:18;2.83;;;1.20;;
14116;SDS011;7137;51.436;6.544;2022-09-28T13:51:39;5.13;;;1.73;;
14116;SDS011;7137;51.436;6.544;2022-09-28T13:55:01;3.20;;;1.30;;
14116;SDS011;7137;51.436;6.544;2022-09-28T13:58:14;2.67;;;1.00;;
14116;SDS011;7137;51.436;6.544;2022-09-28T14:01:22;2.37;;;0.90;;
14116;SDS011;7137;51.436;6.544;2022-09-28T14:08:09;2.37;;;0.80;;
14116;SDS011;7137;51.436;6.544;2022-09-28T14:11:40;3.60;;;1.20;;
14116;SDS011;7137;51.436;6.544;2022-09-28T14:14:45;2.53;;;1.10;;
14116;SDS011;7137;51.436;6.544;2022-09-28T14:17:57;2.63;;;1.00;;
14116;SDS011;7137;51.436;6.544;2022-09-28T14:21:20;3.50;;;1.20;;
14116;SDS011;7137;51.436;6.544;2022-09-28T14:24:42;3.77;;;1.60;;
14116;SDS011;7137;51.436;6.544;2022-09-28T14:28:03;2.80;;;1.20;;
14116;SDS011;7137;51.436;6.544;2022-09-28T14:31:18;1.63;;;0.90;;
14116;SDS011;7137;51.436;6.544;2022-09-28T14:34:29;3.20;;;1.30;;
14116;SDS011;7137;51.436;6.544;2022-09-28T14:37:36;4.67;;;1.53;;
14116;SDS011;7137;51.436;6.544;2022-09-28T14:40:59;3.40;;;0.87;;
14116;SDS011;7137;51.436;6.544;2022-09-28T14:44:13;3.43;;;0.80;;
14116;SDS011;7137;51.436;6.544;2022-09-28T14:47:32;2.43;;;1.00;;
14116;SDS011;7137;51.436;6.544;2022-09-28T14:50:35;2.00;;;0.93;;
14116;SDS011;7137;51.436;6.544;2022-09-28T14:53:36;2.37;;;1.10;;
14116;SDS011;7137;51.436;6.544;2022-09-28T14:56:39;1.60;;;0.80;;
14116;SDS011;7137;51.436;6.544;2022-09-28T14:59:45;2.77;;;1.20;;
14116;SDS011;7137;51.436;6.544;2022-09-28T15:02:48;4.23;;;1.20;;
14116;SDS011;7137;51.436;6.544;2022-09-28T15:05:52;3.23;;;1.40;;
14116;SDS011;7137;51.436;6.544;2022-09-28T15:08:54;3.27;;;1.33;;
14116;SDS011;7137;51.436;6.544;2022-09-28T15:11:58;2.60;;;1.23;;
14116;SDS011;7137;51.436;6.544;2022-09-28T15:15:02;2.43;;;1.10;;
14116;SDS011;7137;51.436;6.544;2022-09-28T15:18:12;2.80;;;1.20;;
14116;SDS011;7137;51.436;6.544;2022-09-28T15:21:32;2.87;;;1.50;;
14116;SDS011;7137;51.436;6.544;2022-09-28T15:24:35;3.30;;;1.50;;
14116;SDS011;7137;51.436;6.544;2022-09-28T15:27:39;3.00;;;1.70;;
14116;SDS011;7137;51.436;6.544;2022-09-28T15:30:42;2.07;;;1.20;;
14116;SDS011;7137;51.436;6.544;2022-09-28T15:33:44;0.83;;;0.50;;
14116;SDS011;7137;51.436;6.544;2022-09-28T15:37:03;1.77;;;0.80;;
14116;SDS011;7137;51.436;6.544;2022-09-28T15:40:10;0.87;;;0.70;;
14116;SDS011;7137;51.436;6.544;2022-09-28T15:43:24;1.30;;;0.80;;
14116;SDS011;7137;51.436;6.544;2022-09-28T15:46:30;3.47;;;1.30;;
14116;SDS011;7137;51.436;6.544;2022-09-28T15:49:35;2.60;;;1.30;;
14116;SDS011;7137;51.436;6.544;2022-09-28T15:52:42;4.40;;;2.20;;
14116;SDS011;7137;51.436;6.544;2022-09-28T15:55:47;4.33;;;2.33;;
14116;SDS011;7137;51.436;6.544;2022-09-28T16:02:13;2.30;;;0.70;;
14116;SDS011;7137;51.436;6.544;2022-09-28T16:05:27;1.13;;;0.60;;
14116;SDS011;7137;51.436;6.544;2022-09-28T16:08:39;1.10;;;0.60;;
14116;SDS011;7137;51.436;6.544;2022-09-28T16:11:42;0.70;;;0.40;;
14116;SDS011;7137;51.436;6.544;2022-09-28T16:14:45;2.37;;;1.00;;
14116;SDS011;7137;51.436;6.544;2022-09-28T16:17:50;2.30;;;0.80;;
14116;SDS011;7137;51.436;6.544;2022-09-28T16:20:54;3.43;;;0.90;;
14116;SDS011;7137;51.436;6.544;2022-09-28T16:24:00;1.37;;;0.67;;
14116;SDS011;7137;51.436;6.544;2022-09-28T16:27:03;2.50;;;0.70;;
14116;SDS011;7137;51.436;6.544;2022-09-28T16:30:14;1.07;;;0.70;;
14116;SDS011;7137;51.436;6.544;2022-09-28T16:33:27;3.47;;;1.90;;
14116;SDS011;7137;51.436;6.544;2022-09-28T16:36:37;2.97;;;1.00;;
14116;SDS011;7137;51.436;6.544;2022-09-28T16:39:42;1.67;;;0.80;;
14116;SDS011;7137;51.436;6.544;2022-09-28T16:42:43;3.80;;;1.00;;
14116;SDS011;7137;51.436;6.544;2022-09-28T16:45:46;10.87;;;7.33;;
14116;SDS011;7137;51.436;6.544;2022-09-28T16:48:49;3.57;;;1.50;;
14116;SDS011;7137;51.436;6.544;2022-09-28T16:51:51;9.87;;;7.13;;
14116;SDS011;7137;51.436;6.544;2022-09-28T16:54:52;4.33;;;2.77;;
14116;SDS011;7137;51.436;6.544;2022-09-28T16:58:12;18.73;;;16.93;;
14116;SDS011;7137;51.436;6.544;2022-09-28T17:01:13;81.60;;;67.37;;
14116;SDS011;7137;51.436;6.544;2022-09-28T17:04:16;38.90;;;34.70;;
14116;SDS011;7137;51.436;6.544;2022-09-28T17:07:18;11.07;;;7.10;;
14116;SDS011;7137;51.436;6.544;2022-09-28T17:10:21;11.37;;;8.93;;
14116;SDS011;7137;51.436;6.544;2022-09-28T17:13:29;21.03;;;18.43;;
14116;SDS011;7137;51.436;6.544;2022-09-28T17:16:33;19.73;;;16.67;;
14116;SDS011;7137;51.436;6.544;2022-09-28T17:19:40;24.47;;;21.70;;
14116;SDS011;7137;51.436;6.544;2022-09-28T17:22:41;7.93;;;6.17;;
14116;SDS011;7137;51.436;6.544;2022-09-28T17:25:43;14.23;;;12.83;;
14116;SDS011;7137;51.436;6.544;2022-09-28T17:28:45;4.80;;;3.63;;
14116;SDS011;7137;51.436;6.544;2022-09-28T17:31:47;4.37;;;2.17;;
14116;SDS011;7137;51.436;6.544;2022-09-28T17:34:50;2.57;;;1.43;;
14116;SDS011;7137;51.436;6.544;2022-09-28T17:37:51;3.43;;;2.00;;
14116;SDS011;7137;51.436;6.544;2022-09-28T17:40:53;3.00;;;1.80;;
14116;SDS011;7137;51.436;6.544;2022-09-28T17:43:54;3.33;;;2.23;;
14116;SDS011;7137;51.436;6.544;2022-09-28T17:46:56;15.73;;;12.33;;
14116;SDS011;7137;51.436;6.544;2022-09-28T17:50:00;24.37;;;19.43;;
14116;SDS011;7137;51.436;6.544;2022-09-28T17:53:02;4.70;;;2.93;;
14116;SDS011;7137;51.436;6.544;2022-09-28T17:56:05;6.80;;;5.30;;
14116;SDS011;7137;51.436;6.544;2022-09-28T17:59:09;5.60;;;4.17;;
14116;SDS011;7137;51.436;6.544;2022-09-28T18:02:13;9.63;;;8.63;;
14116;SDS011;7137;51.436;6.544;2022-09-28T18:05:16;4.60;;;3.40;;
14116;SDS011;7137;51.436;6.544;2022-09-28T18:08:20;3.40;;;2.00;;
14116;SDS011;7137;51.436;6.544;2022-09-28T18:11:21;4.07;;;1.73;;
14116;SDS011;7137;51.436;6.544;2022-09-28T18:14:23;30.80;;;27.13;;
14116;SDS011;7137;51.436;6.544;2022-09-28T18:17:25;6.83;;;4.40;;
14116;SDS011;7137;51.436;6.544;2022-09-28T18:20:28;10.90;;;7.37;;
14116;SDS011;7137;51.436;6.544;2022-09-28T18:23:30;8.13;;;6.23;;
14116;SDS011;7137;51.436;6.544;2022-09-28T18:26:35;23.00;;;20.87;;
14116;SDS011;7137;51.436;6.544;2022-09-28T18:29:38;11.97;;;10.77;;
14116;SDS011;7137;51.436;6.544;2022-09-28T18:32:40;10.73;;;9.47;;
14116;SDS011;7137;51.436;6.544;2022-09-28T18:35:50;18.30;;;16.40;;
14116;SDS011;7137;51.436;6.544;2022-09-28T18:38:52;14.53;;;12.60;;
14116;SDS011;7137;51.436;6.544;2022-09-28T18:41:53;12.10;;;10.80;;
14116;SDS011;7137;51.436;6.544;2022-09-28T18:44:55;15.00;;;13.47;;
14116;SDS011;7137;51.436;6.544;2022-09-28T18:47:56;7.80;;;7.00;;
14116;SDS011;7137;51.436;6.544;2022-09-28T18:51:00;7.00;;;6.20;;
14116;SDS011;7137;51.436;6.544;2022-09-28T18:54:01;6.23;;;5.10;;
14116;SDS011;7137;51.436;6.544;2022-09-28T18:57:05;6.73;;;5.30;;
14116;SDS011;7137;51.436;6.544;2022-09-28T19:00:08;6.10;;;4.90;;
14116;SDS011;7137;51.436;6.544;2022-09-28T19:03:11;6.53;;;5.07;;
14116;SDS011;7137;51.436;6.544;2022-09-28T19:06:15;6.37;;;4.87;;
14116;SDS011;7137;51.436;6.544;2022-09-28T19:09:18;6.17;;;5.03;;
14116;SDS011;7137;51.436;6.544;2022-09-28T19:12:21;5.97;;;4.77;;
14116;SDS011;7137;51.436;6.544;2022-09-28T19:15:23;6.33;;;4.70;;
14116;SDS011;7137;51.436;6.544;2022-09-28T19:18:24;7.67;;;5.30;;